createdAt,value
2019-04-30T00:04:37.646Z,10.10
2019-04-30T00:09:44.968Z,8.60
2019-04-30T00:14:52.087Z,8.47
2019-04-30T00:20:00.986Z,8.33
2019-04-30T00:25:06.890Z,8.10
2019-04-30T00:30:15.338Z,7.60
2019-04-30T00:35:21.256Z,7.77
2019-04-30T00:40:30.104Z,7.60
2019-04-30T00:45:39.878Z,6.90
2019-04-30T00:50:43.549Z,6.73
2019-04-30T00:55:49.161Z,6.67
2019-04-30T01:01:04.876Z,6.63
2019-04-30T01:06:10.847Z,6.57
2019-04-30T01:11:17.772Z,6.23
2019-04-30T01:16:23.755Z,6.43
2019-04-30T01:21:35.258Z,5.83
2019-04-30T01:26:40.767Z,7.97
2019-04-30T01:31:46.405Z,6.67
2019-04-30T01:36:54.157Z,6.30
2019-04-30T01:42:02.866Z,5.87
2019-04-30T01:47:13.027Z,5.70
2019-04-30T01:52:20.665Z,6.53
2019-04-30T01:57:53.167Z,6.80
2019-04-30T02:02:59.286Z,5.70
2019-04-30T02:08:04.720Z,5.93
2019-04-30T02:13:12.187Z,6.00
2019-04-30T02:18:20.253Z,6.40
2019-04-30T02:23:26.322Z,6.30
2019-04-30T02:28:31.687Z,6.70
2019-04-30T02:33:40.474Z,5.67
2019-04-30T02:38:49.731Z,7.10
2019-04-30T02:43:59.819Z,6.07
2019-04-30T02:49:06.896Z,6.43
2019-04-30T02:54:24.164Z,6.40
2019-04-30T02:59:33.887Z,6.63
2019-04-30T03:04:39.673Z,6.47
2019-04-30T03:09:45.181Z,6.40
2019-04-30T03:14:54.222Z,5.80
2019-04-30T03:20:05.744Z,6.33
2019-04-30T03:25:14.318Z,6.30
2019-04-30T03:30:22.228Z,6.90
2019-04-30T03:35:32.207Z,6.83
2019-04-30T03:40:40.442Z,7.70
2019-04-30T03:45:46.374Z,6.83
2019-04-30T03:50:56.915Z,7.53
2019-04-30T03:56:03.016Z,6.77
2019-04-30T04:01:24.836Z,6.97
2019-04-30T04:06:39.537Z,7.43
2019-04-30T04:11:47.295Z,8.37
2019-04-30T04:16:53.239Z,6.70
2019-04-30T04:22:04.229Z,6.87
2019-04-30T04:27:10.034Z,7.13
2019-04-30T04:32:23.628Z,6.47
2019-04-30T04:37:29.804Z,5.77
2019-04-30T04:42:34.788Z,6.33
2019-04-30T04:47:40.496Z,5.93
2019-04-30T04:52:45.941Z,6.37
2019-04-30T04:57:51.343Z,6.37
2019-04-30T05:03:39.901Z,6.10
2019-04-30T05:08:49.211Z,6.00
2019-04-30T05:13:56.636Z,6.40
2019-04-30T05:19:02.278Z,6.00
2019-04-30T05:24:09.046Z,5.53
2019-04-30T05:29:15.928Z,5.50
2019-04-30T05:34:22.898Z,6.17
2019-04-30T05:39:28.527Z,5.80
2019-04-30T05:44:34.032Z,5.83
2019-04-30T05:49:39.527Z,6.20
2019-04-30T05:54:48.567Z,6.10
2019-04-30T05:59:55.524Z,5.87
2019-04-30T06:05:01.160Z,5.70
2019-04-30T06:10:22.224Z,5.47
2019-04-30T06:15:41.328Z,4.83
2019-04-30T06:20:48.576Z,5.70
2019-04-30T06:26:00.435Z,5.60
2019-04-30T06:31:03.098Z,5.57
2019-04-30T06:36:11.616Z,7.23
2019-04-30T06:41:19.690Z,6.03
2019-04-30T06:46:24.912Z,5.17
2019-04-30T06:51:33.381Z,5.17
2019-04-30T06:56:38.902Z,5.27
2019-04-30T07:01:50.444Z,5.43
2019-04-30T07:07:09.119Z,6.33
2019-04-30T07:12:29.806Z,5.17
2019-04-30T07:17:49.144Z,5.83
2019-04-30T07:23:03.507Z,6.70
2019-04-30T07:28:11.853Z,6.00
2019-04-30T07:33:20.735Z,6.20
2019-04-30T07:38:35.772Z,6.57
2019-04-30T07:43:50.573Z,6.83
2019-04-30T07:49:04.271Z,6.80
2019-04-30T07:54:10.680Z,7.13
2019-04-30T07:59:26.503Z,5.93
2019-04-30T08:04:52.307Z,7.60
2019-04-30T08:10:03.230Z,6.90
2019-04-30T08:15:16.528Z,6.70
2019-04-30T08:20:31.637Z,6.90
2019-04-30T08:25:45.277Z,7.57
2019-04-30T08:30:59.003Z,7.30
2019-04-30T08:36:10.184Z,6.87
2019-04-30T08:41:21.759Z,6.63
2019-04-30T08:46:34.426Z,7.00
2019-04-30T08:51:49.038Z,6.73
2019-04-30T08:57:04.108Z,6.60
2019-04-30T09:02:16.452Z,7.30
2019-04-30T09:07:22.797Z,10.70
2019-04-30T09:12:30.335Z,7.07
2019-04-30T09:17:58.122Z,7.10
2019-04-30T09:22:59.639Z,6.60
2019-04-30T09:28:12.819Z,7.27
2019-04-30T09:33:29.437Z,7.40
2019-04-30T09:38:44.266Z,8.30
2019-04-30T09:44:10.137Z,6.93
2019-04-30T09:49:26.336Z,7.07
2019-04-30T09:54:40.464Z,6.57
2019-04-30T10:00:00.946Z,7.73
2019-04-30T10:05:08.785Z,6.77
2019-04-30T10:10:18.861Z,7.43
2019-04-30T10:15:54.140Z,7.30
2019-04-30T10:21:09.096Z,7.93
2019-04-30T10:26:20.015Z,7.43
2019-04-30T10:31:31.005Z,7.53
2019-04-30T10:36:41.447Z,7.70
2019-04-30T10:41:48.989Z,7.37
2019-04-30T10:46:54.926Z,7.73
2019-04-30T10:52:03.249Z,7.67
2019-04-30T10:57:10.037Z,7.83
2019-04-30T11:02:17.134Z,8.47
2019-04-30T11:07:23.827Z,8.03
2019-04-30T11:12:29.355Z,7.80
2019-04-30T11:17:36.673Z,7.77
2019-04-30T11:22:48.813Z,7.83
2019-04-30T11:28:02.424Z,7.63
2019-04-30T11:33:16.652Z,8.13
2019-04-30T11:38:25.474Z,7.80
2019-04-30T11:43:30.965Z,8.70
2019-04-30T11:48:44.435Z,8.37
2019-04-30T11:53:54.850Z,8.83
2019-04-30T11:59:00.260Z,8.40
2019-04-30T12:04:17.166Z,9.33
2019-04-30T12:09:43.735Z,8.00
2019-04-30T12:15:01.075Z,8.53
2019-04-30T12:20:11.486Z,8.63
2019-04-30T12:25:22.980Z,8.70
2019-04-30T12:30:30.250Z,8.27
2019-04-30T12:35:51.439Z,7.83
2019-04-30T12:46:38.631Z,8.87
2019-04-30T12:52:12.695Z,7.60
2019-04-30T12:57:58.895Z,7.87
2019-04-30T13:03:00.023Z,8.30
2019-04-30T13:08:06.264Z,10.70
2019-04-30T13:13:12.470Z,9.00
2019-04-30T13:18:19.496Z,8.63
2019-04-30T13:23:33.724Z,8.10
2019-04-30T13:29:07.040Z,8.87
2019-04-30T13:35:02.383Z,8.97
2019-04-30T13:40:36.396Z,8.30
2019-04-30T13:45:51.918Z,9.57
2019-04-30T13:51:07.156Z,8.43
2019-04-30T13:56:23.270Z,8.83
2019-04-30T14:01:48.887Z,8.60
2019-04-30T14:07:18.684Z,8.60
2019-04-30T14:12:36.330Z,8.47
2019-04-30T14:17:53.170Z,9.20
2019-04-30T14:23:12.436Z,8.57
2019-04-30T14:28:33.325Z,8.17
2019-04-30T14:33:52.560Z,9.67
2019-04-30T14:39:16.970Z,8.43
2019-04-30T14:44:41.775Z,8.37
2019-04-30T14:50:15.657Z,8.73
2019-04-30T14:55:54.771Z,8.03
2019-04-30T15:01:32.279Z,8.63
2019-04-30T15:06:53.720Z,7.90
2019-04-30T15:12:10.231Z,7.57
2019-04-30T15:17:27.841Z,7.50
2019-04-30T15:22:51.754Z,7.40
2019-04-30T15:28:13.310Z,11.63
2019-04-30T15:34:04.000Z,8.53
2019-04-30T15:39:31.036Z,7.00
2019-04-30T15:44:49.703Z,6.83
2019-04-30T15:50:13.590Z,7.07
2019-04-30T15:55:21.038Z,8.23
2019-04-30T16:00:31.361Z,7.77
2019-04-30T16:05:41.060Z,7.23
2019-04-30T16:11:07.425Z,7.23
2019-04-30T16:16:13.289Z,8.03
2019-04-30T16:21:19.335Z,7.47
2019-04-30T16:26:25.118Z,7.17
2019-04-30T16:31:30.489Z,7.83
2019-04-30T16:36:36.070Z,8.00
2019-04-30T16:41:41.613Z,7.40
2019-04-30T16:46:50.046Z,8.60
2019-04-30T16:51:55.731Z,5.63
2019-04-30T16:57:06.589Z,6.80
2019-04-30T17:02:12.752Z,7.03
2019-04-30T17:07:38.760Z,6.67
2019-04-30T17:13:03.526Z,6.17
2019-04-30T17:18:14.196Z,6.10
2019-04-30T17:23:19.526Z,5.83
2019-04-30T17:28:25.046Z,6.23
2019-04-30T17:33:31.662Z,5.37
2019-04-30T17:38:38.160Z,5.33
2019-04-30T17:43:43.686Z,6.20
2019-04-30T17:48:49.526Z,5.67
2019-04-30T17:54:14.334Z,5.63
2019-04-30T17:59:19.735Z,5.60
2019-04-30T18:04:25.523Z,6.20
2019-04-30T18:09:30.944Z,6.30
2019-04-30T18:14:36.310Z,6.37
2019-04-30T18:19:54.923Z,6.07
2019-04-30T18:25:07.829Z,6.53
2019-04-30T18:30:16.390Z,6.67
2019-04-30T18:35:22.233Z,8.60
2019-04-30T18:40:29.617Z,8.83
2019-04-30T18:45:36.386Z,9.17
2019-04-30T18:50:41.902Z,9.10
2019-04-30T18:55:50.764Z,7.97
2019-04-30T19:00:56.429Z,9.23
2019-04-30T19:06:06.182Z,9.07
2019-04-30T19:11:39.744Z,9.00
2019-04-30T19:17:04.374Z,10.33
2019-04-30T19:22:09.804Z,9.90
2019-04-30T19:27:15.116Z,10.43
2019-04-30T19:32:20.484Z,8.97
2019-04-30T19:37:25.695Z,10.23
2019-04-30T19:42:31.209Z,11.23
2019-04-30T19:47:36.602Z,11.63
2019-04-30T19:52:42.169Z,12.03
2019-04-30T19:57:48.769Z,10.67
2019-04-30T20:02:57.260Z,11.87
2019-04-30T20:08:01.650Z,13.97
2019-04-30T20:13:06.976Z,14.17
2019-04-30T20:18:12.422Z,15.17
2019-04-30T20:23:17.613Z,27.67
2019-04-30T20:28:22.910Z,26.87
2019-04-30T20:33:28.986Z,27.33
2019-04-30T20:38:52.058Z,25.63
2019-04-30T20:43:57.772Z,24.53
2019-04-30T20:49:03.318Z,22.73
2019-04-30T20:54:09.121Z,23.50
2019-04-30T20:59:14.665Z,23.07
2019-04-30T21:04:22.139Z,22.93
2019-04-30T21:09:29.883Z,24.87
2019-04-30T21:14:35.161Z,26.07
2019-04-30T21:19:41.439Z,28.30
2019-04-30T21:24:46.977Z,28.03
2019-04-30T21:29:52.472Z,30.00
2019-04-30T21:35:19.794Z,27.70
2019-04-30T21:40:25.223Z,29.77
2019-04-30T21:45:31.561Z,31.53
2019-04-30T21:50:37.173Z,32.70
2019-04-30T21:55:42.728Z,34.67
2019-04-30T22:01:06.942Z,35.20
2019-04-30T22:06:19.462Z,36.63
2019-04-30T22:11:24.828Z,39.67
2019-04-30T22:16:30.357Z,39.17
2019-04-30T22:21:36.063Z,46.57
2019-04-30T22:26:41.328Z,45.60
2019-04-30T22:31:46.686Z,42.73
2019-04-30T22:36:52.155Z,42.83
2019-04-30T22:42:11.623Z,42.73
2019-04-30T22:47:17.747Z,38.03
2019-04-30T22:52:23.269Z,39.53
2019-04-30T22:57:28.579Z,39.30
2019-04-30T23:02:46.893Z,38.23
2019-04-30T23:07:52.478Z,39.40
2019-04-30T23:12:57.839Z,38.87
2019-04-30T23:18:03.081Z,36.27
2019-04-30T23:23:08.707Z,35.20
2019-04-30T23:28:14.094Z,35.10
2019-04-30T23:33:19.525Z,34.40
2019-04-30T23:38:25.367Z,32.77
2019-04-30T23:43:31.325Z,34.63
2019-04-30T23:48:37.087Z,37.00
2019-04-30T23:53:42.527Z,34.33
2019-04-30T23:58:47.842Z,33.67
